sensor_id;sensor_type;location;lat;lon;timestamp;P1;durP1;ratioP1;P2;durP2;ratioP2
6432;SDS011;3249;42.690;23.260;2022-12-07T00:03:34;47.60;;;29.37;;
6432;SDS011;3249;42.690;23.260;2022-12-07T00:06:02;50.57;;;31.33;;
6432;SDS011;3249;42.690;23.260;2022-12-07T00:08:28;46.80;;;31.70;;
6432;SDS011;3249;42.690;23.260;2022-12-07T00:10:54;42.73;;;29.57;;
6432;SDS011;3249;42.690;23.260;2022-12-07T00:13:20;49.70;;;31.10;;
6432;SDS011;3249;42.690;23.260;2022-12-07T00:15:46;51.07;;;31.43;;
6432;SDS011;3249;42.690;23.260;2022-12-07T00:18:11;42.60;;;29.30;;
6432;SDS011;3249;42.690;23.260;2022-12-07T00:20:36;43.77;;;29.50;;
6432;SDS011;3249;42.690;23.260;2022-12-07T00:23:02;45.57;;;29.90;;
6432;SDS011;3249;42.690;23.260;2022-12-07T00:25:27;46.57;;;30.37;;
6432;SDS011;3249;42.690;23.260;2022-12-07T00:27:53;50.33;;;31.57;;
6432;SDS011;3249;42.690;23.260;2022-12-07T00:30:21;47.63;;;29.70;;
6432;SDS011;3249;42.690;23.260;2022-12-07T00:32:47;45.33;;;30.87;;
6432;SDS011;3249;42.690;23.260;2022-12-07T00:35:13;50.77;;;30.20;;
6432;SDS011;3249;42.690;23.260;2022-12-07T00:37:38;51.17;;;35.03;;
6432;SDS011;3249;42.690;23.260;2022-12-07T00:40:04;56.30;;;33.03;;
6432;SDS011;3249;42.690;23.260;2022-12-07T00:42:30;57.57;;;33.83;;
6432;SDS011;3249;42.690;23.260;2022-12-07T00:44:55;51.77;;;34.47;;
6432;SDS011;3249;42.690;23.260;2022-12-07T00:47:21;54.97;;;32.97;;
6432;SDS011;3249;42.690;23.260;2022-12-07T00:49:46;55.00;;;33.53;;
6432;SDS011;3249;42.690;23.260;2022-12-07T00:52:11;55.73;;;33.13;;
6432;SDS011;3249;42.690;23.260;2022-12-07T00:54:37;55.93;;;35.47;;
6432;SDS011;3249;42.690;23.260;2022-12-07T00:57:02;52.50;;;33.83;;
6432;SDS011;3249;42.690;23.260;2022-12-07T00:59:28;49.97;;;32.80;;
6432;SDS011;3249;42.690;23.260;2022-12-07T01:01:53;44.23;;;29.10;;
6432;SDS011;3249;42.690;23.260;2022-12-07T01:04:18;47.00;;;28.50;;
6432;SDS011;3249;42.690;23.260;2022-12-07T01:06:44;43.17;;;27.90;;
6432;SDS011;3249;42.690;23.260;2022-12-07T01:09:09;37.63;;;25.13;;
6432;SDS011;3249;42.690;23.260;2022-12-07T01:11:35;39.07;;;26.07;;
6432;SDS011;3249;42.690;23.260;2022-12-07T01:14:00;37.13;;;25.23;;
6432;SDS011;3249;42.690;23.260;2022-12-07T01:16:27;38.83;;;23.60;;
6432;SDS011;3249;42.690;23.260;2022-12-07T01:18:55;35.67;;;23.67;;
6432;SDS011;3249;42.690;23.260;2022-12-07T01:21:23;37.67;;;24.27;;
6432;SDS011;3249;42.690;23.260;2022-12-07T01:24:00;42.27;;;25.07;;
6432;SDS011;3249;42.690;23.260;2022-12-07T01:26:26;39.87;;;24.80;;
6432;SDS011;3249;42.690;23.260;2022-12-07T01:28:52;38.07;;;24.73;;
6432;SDS011;3249;42.690;23.260;2022-12-07T01:31:20;44.60;;;27.60;;
6432;SDS011;3249;42.690;23.260;2022-12-07T01:33:48;39.87;;;27.00;;
6432;SDS011;3249;42.690;23.260;2022-12-07T01:38:46;40.63;;;27.93;;
6432;SDS011;3249;42.690;23.260;2022-12-07T01:41:13;40.60;;;25.30;;
6432;SDS011;3249;42.690;23.260;2022-12-07T01:46:43;37.90;;;26.20;;
6432;SDS011;3249;42.690;23.260;2022-12-07T01:49:12;39.10;;;24.90;;
6432;SDS011;3249;42.690;23.260;2022-12-07T01:51:42;38.47;;;25.53;;
6432;SDS011;3249;42.690;23.260;2022-12-07T01:54:10;39.93;;;26.50;;
6432;SDS011;3249;42.690;23.260;2022-12-07T01:56:38;39.80;;;25.17;;
6432;SDS011;3249;42.690;23.260;2022-12-07T01:59:05;40.93;;;26.50;;
6432;SDS011;3249;42.690;23.260;2022-12-07T02:01:30;39.77;;;26.37;;
6432;SDS011;3249;42.690;23.260;2022-12-07T02:03:56;42.37;;;25.33;;
6432;SDS011;3249;42.690;23.260;2022-12-07T02:06:24;38.87;;;25.00;;
6432;SDS011;3249;42.690;23.260;2022-12-07T02:08:50;40.17;;;24.77;;
6432;SDS011;3249;42.690;23.260;2022-12-07T02:11:16;34.70;;;23.40;;
6432;SDS011;3249;42.690;23.260;2022-12-07T02:13:42;32.80;;;21.80;;
6432;SDS011;3249;42.690;23.260;2022-12-07T02:16:14;40.90;;;24.03;;
6432;SDS011;3249;42.690;23.260;2022-12-07T02:30:00;33.87;;;23.63;;
6432;SDS011;3249;42.690;23.260;2022-12-07T02:32:42;39.07;;;24.17;;
6432;SDS011;3249;42.690;23.260;2022-12-07T02:40:48;30.83;;;20.33;;
6432;SDS011;3249;42.690;23.260;2022-12-07T02:43:27;34.70;;;20.90;;
6432;SDS011;3249;42.690;23.260;2022-12-07T02:45:59;34.13;;;20.60;;
6432;SDS011;3249;42.690;23.260;2022-12-07T02:48:32;33.10;;;23.20;;
6432;SDS011;3249;42.690;23.260;2022-12-07T02:50:59;37.17;;;23.77;;
6432;SDS011;3249;42.690;23.260;2022-12-07T02:53:35;37.10;;;24.33;;
6432;SDS011;3249;42.690;23.260;2022-12-07T02:56:10;44.00;;;27.40;;
6432;SDS011;3249;42.690;23.260;2022-12-07T02:58:58;50.33;;;28.93;;
6432;SDS011;3249;42.690;23.260;2022-12-07T03:07:39;45.03;;;29.30;;
6432;SDS011;3249;42.690;23.260;2022-12-07T03:12:35;48.27;;;27.50;;
6432;SDS011;3249;42.690;23.260;2022-12-07T03:15:14;43.87;;;29.93;;
6432;SDS011;3249;42.690;23.260;2022-12-07T03:17:48;48.17;;;31.33;;
6432;SDS011;3249;42.690;23.260;2022-12-07T03:20:16;47.70;;;30.83;;
6432;SDS011;3249;42.690;23.260;2022-12-07T03:22:45;43.93;;;29.43;;
6432;SDS011;3249;42.690;23.260;2022-12-07T03:25:13;42.73;;;28.03;;
6432;SDS011;3249;42.690;23.260;2022-12-07T03:30:13;42.20;;;25.43;;
6432;SDS011;3249;42.690;23.260;2022-12-07T03:35:12;37.20;;;24.60;;
6432;SDS011;3249;42.690;23.260;2022-12-07T03:40:30;39.13;;;25.00;;
6432;SDS011;3249;42.690;23.260;2022-12-07T03:43:00;34.73;;;24.43;;
6432;SDS011;3249;42.690;23.260;2022-12-07T03:45:53;36.93;;;23.17;;
6432;SDS011;3249;42.690;23.260;2022-12-07T03:51:11;34.67;;;23.17;;
6432;SDS011;3249;42.690;23.260;2022-12-07T03:53:42;39.33;;;23.43;;
6432;SDS011;3249;42.690;23.260;2022-12-07T03:56:32;41.50;;;26.80;;
6432;SDS011;3249;42.690;23.260;2022-12-07T03:59:00;43.07;;;26.70;;
6432;SDS011;3249;42.690;23.260;2022-12-07T04:01:25;42.90;;;27.03;;
6432;SDS011;3249;42.690;23.260;2022-12-07T04:03:50;42.80;;;27.17;;
6432;SDS011;3249;42.690;23.260;2022-12-07T04:06:16;48.70;;;30.03;;
6432;SDS011;3249;42.690;23.260;2022-12-07T04:08:42;54.23;;;31.37;;
6432;SDS011;3249;42.690;23.260;2022-12-07T04:11:07;50.53;;;32.20;;
6432;SDS011;3249;42.690;23.260;2022-12-07T04:13:32;52.73;;;33.23;;
6432;SDS011;3249;42.690;23.260;2022-12-07T04:16:18;62.50;;;38.33;;
6432;SDS011;3249;42.690;23.260;2022-12-07T04:18:43;56.67;;;35.93;;
6432;SDS011;3249;42.690;23.260;2022-12-07T04:21:08;52.07;;;32.53;;
6432;SDS011;3249;42.690;23.260;2022-12-07T04:23:34;64.37;;;41.43;;
6432;SDS011;3249;42.690;23.260;2022-12-07T04:25:59;53.30;;;31.77;;
6432;SDS011;3249;42.690;23.260;2022-12-07T04:28:25;55.30;;;31.07;;
6432;SDS011;3249;42.690;23.260;2022-12-07T04:30:50;53.87;;;30.97;;
6432;SDS011;3249;42.690;23.260;2022-12-07T04:33:15;54.30;;;31.03;;
6432;SDS011;3249;42.690;23.260;2022-12-07T04:35:42;47.30;;;31.63;;
6432;SDS011;3249;42.690;23.260;2022-12-07T04:38:08;51.17;;;31.27;;
6432;SDS011;3249;42.690;23.260;2022-12-07T04:40:34;48.50;;;30.03;;
6432;SDS011;3249;42.690;23.260;2022-12-07T04:42:59;51.30;;;30.87;;
6432;SDS011;3249;42.690;23.260;2022-12-07T04:45:25;46.53;;;28.23;;
6432;SDS011;3249;42.690;23.260;2022-12-07T04:47:50;43.73;;;23.50;;
6432;SDS011;3249;42.690;23.260;2022-12-07T04:50:16;47.03;;;25.47;;
6432;SDS011;3249;42.690;23.260;2022-12-07T04:52:41;38.27;;;22.53;;
6432;SDS011;3249;42.690;23.260;2022-12-07T04:55:07;42.47;;;26.37;;
6432;SDS011;3249;42.690;23.260;2022-12-07T04:57:32;44.97;;;27.37;;
6432;SDS011;3249;42.690;23.260;2022-12-07T04:59:57;42.43;;;25.37;;
6432;SDS011;3249;42.690;23.260;2022-12-07T05:02:23;45.17;;;27.43;;
6432;SDS011;3249;42.690;23.260;2022-12-07T05:04:48;43.43;;;26.43;;
6432;SDS011;3249;42.690;23.260;2022-12-07T05:07:14;41.57;;;26.03;;
6432;SDS011;3249;42.690;23.260;2022-12-07T05:09:39;44.03;;;26.40;;
6432;SDS011;3249;42.690;23.260;2022-12-07T05:12:04;39.73;;;24.97;;
6432;SDS011;3249;42.690;23.260;2022-12-07T05:14:30;42.00;;;26.60;;
6432;SDS011;3249;42.690;23.260;2022-12-07T05:16:55;42.53;;;25.77;;
6432;SDS011;3249;42.690;23.260;2022-12-07T05:19:20;42.23;;;25.97;;
6432;SDS011;3249;42.690;23.260;2022-12-07T05:21:46;42.50;;;26.07;;
6432;SDS011;3249;42.690;23.260;2022-12-07T05:24:12;42.93;;;26.30;;
6432;SDS011;3249;42.690;23.260;2022-12-07T05:26:39;49.00;;;29.97;;
6432;SDS011;3249;42.690;23.260;2022-12-07T05:29:05;51.83;;;30.07;;
6432;SDS011;3249;42.690;23.260;2022-12-07T05:31:31;46.97;;;31.23;;
6432;SDS011;3249;42.690;23.260;2022-12-07T05:33:56;62.37;;;36.40;;
6432;SDS011;3249;42.690;23.260;2022-12-07T05:36:22;61.80;;;36.63;;
6432;SDS011;3249;42.690;23.260;2022-12-07T05:38:48;48.53;;;32.20;;
6432;SDS011;3249;42.690;23.260;2022-12-07T05:41:14;52.80;;;31.90;;
6432;SDS011;3249;42.690;23.260;2022-12-07T05:44:00;51.57;;;29.73;;
6432;SDS011;3249;42.690;23.260;2022-12-07T05:46:26;47.77;;;26.13;;
6432;SDS011;3249;42.690;23.260;2022-12-07T05:48:52;47.50;;;31.50;;
6432;SDS011;3249;42.690;23.260;2022-12-07T05:51:17;45.73;;;29.00;;
6432;SDS011;3249;42.690;23.260;2022-12-07T05:53:43;47.93;;;28.33;;
6432;SDS011;3249;42.690;23.260;2022-12-07T05:56:12;44.63;;;30.40;;
6432;SDS011;3249;42.690;23.260;2022-12-07T05:58:38;51.13;;;33.93;;
6432;SDS011;3249;42.690;23.260;2022-12-07T06:01:22;75.27;;;47.03;;
6432;SDS011;3249;42.690;23.260;2022-12-07T06:03:47;59.13;;;38.30;;
6432;SDS011;3249;42.690;23.260;2022-12-07T06:06:13;72.23;;;40.70;;
6432;SDS011;3249;42.690;23.260;2022-12-07T06:08:38;64.13;;;39.50;;
6432;SDS011;3249;42.690;23.260;2022-12-07T06:11:03;61.57;;;36.67;;
6432;SDS011;3249;42.690;23.260;2022-12-07T06:13:47;59.77;;;38.07;;
6432;SDS011;3249;42.690;23.260;2022-12-07T06:16:13;59.07;;;39.57;;
6432;SDS011;3249;42.690;23.260;2022-12-07T06:18:38;75.73;;;46.10;;
6432;SDS011;3249;42.690;23.260;2022-12-07T06:21:04;57.60;;;34.40;;
6432;SDS011;3249;42.690;23.260;2022-12-07T06:23:29;53.33;;;33.60;;
6432;SDS011;3249;42.690;23.260;2022-12-07T06:25:55;56.10;;;33.87;;
6432;SDS011;3249;42.690;23.260;2022-12-07T06:28:20;53.67;;;33.33;;
6432;SDS011;3249;42.690;23.260;2022-12-07T06:30:45;49.00;;;30.97;;
6432;SDS011;3249;42.690;23.260;2022-12-07T06:33:11;52.33;;;32.23;;
6432;SDS011;3249;42.690;23.260;2022-12-07T06:35:36;57.07;;;34.50;;
6432;SDS011;3249;42.690;23.260;2022-12-07T06:38:02;47.80;;;29.37;;
6432;SDS011;3249;42.690;23.260;2022-12-07T06:40:27;47.20;;;29.20;;
6432;SDS011;3249;42.690;23.260;2022-12-07T06:42:52;48.23;;;31.37;;
6432;SDS011;3249;42.690;23.260;2022-12-07T06:45:18;55.73;;;29.90;;
6432;SDS011;3249;42.690;23.260;2022-12-07T06:47:43;49.67;;;30.73;;
6432;SDS011;3249;42.690;23.260;2022-12-07T06:50:09;52.17;;;34.20;;
6432;SDS011;3249;42.690;23.260;2022-12-07T06:52:34;50.67;;;31.53;;
6432;SDS011;3249;42.690;23.260;2022-12-07T06:55:00;47.73;;;31.13;;
6432;SDS011;3249;42.690;23.260;2022-12-07T06:57:25;46.53;;;28.07;;
6432;SDS011;3249;42.690;23.260;2022-12-07T06:59:51;47.17;;;29.57;;
6432;SDS011;3249;42.690;23.260;2022-12-07T07:02:17;45.10;;;29.97;;
6432;SDS011;3249;42.690;23.260;2022-12-07T07:05:01;57.37;;;34.73;;
6432;SDS011;3249;42.690;23.260;2022-12-07T07:07:26;61.57;;;38.90;;
6432;SDS011;3249;42.690;23.260;2022-12-07T07:09:52;70.03;;;40.53;;
6432;SDS011;3249;42.690;23.260;2022-12-07T07:12:17;56.50;;;35.47;;
6432;SDS011;3249;42.690;23.260;2022-12-07T07:14:43;50.73;;;33.80;;
6432;SDS011;3249;42.690;23.260;2022-12-07T07:17:08;63.27;;;35.03;;
6432;SDS011;3249;42.690;23.260;2022-12-07T07:19:34;53.30;;;32.00;;
6432;SDS011;3249;42.690;23.260;2022-12-07T07:21:59;48.43;;;31.53;;
6432;SDS011;3249;42.690;23.260;2022-12-07T07:24:24;52.50;;;30.50;;
6432;SDS011;3249;42.690;23.260;2022-12-07T07:26:53;47.47;;;31.77;;
6432;SDS011;3249;42.690;23.260;2022-12-07T07:29:18;45.63;;;29.47;;
6432;SDS011;3249;42.690;23.260;2022-12-07T07:31:44;47.10;;;27.87;;
6432;SDS011;3249;42.690;23.260;2022-12-07T07:34:09;47.83;;;28.03;;
6432;SDS011;3249;42.690;23.260;2022-12-07T07:36:35;41.93;;;25.30;;
6432;SDS011;3249;42.690;23.260;2022-12-07T07:39:00;41.90;;;24.73;;
6432;SDS011;3249;42.690;23.260;2022-12-07T07:41:26;47.30;;;27.27;;
6432;SDS011;3249;42.690;23.260;2022-12-07T07:43:51;44.80;;;27.27;;
6432;SDS011;3249;42.690;23.260;2022-12-07T07:46:16;49.83;;;27.93;;
6432;SDS011;3249;42.690;23.260;2022-12-07T07:48:42;51.63;;;29.20;;
6432;SDS011;3249;42.690;23.260;2022-12-07T07:51:07;53.37;;;29.13;;
6432;SDS011;3249;42.690;23.260;2022-12-07T07:53:33;55.13;;;29.03;;
6432;SDS011;3249;42.690;23.260;2022-12-07T07:55:58;48.20;;;28.23;;
6432;SDS011;3249;42.690;23.260;2022-12-07T07:58:24;47.90;;;29.77;;
6432;SDS011;3249;42.690;23.260;2022-12-07T08:00:49;44.50;;;27.23;;
6432;SDS011;3249;42.690;23.260;2022-12-07T08:03:15;45.33;;;26.00;;
6432;SDS011;3249;42.690;23.260;2022-12-07T08:05:40;44.07;;;27.80;;
6432;SDS011;3249;42.690;23.260;2022-12-07T08:08:06;50.47;;;27.13;;
6432;SDS011;3249;42.690;23.260;2022-12-07T08:10:31;44.50;;;27.90;;
6432;SDS011;3249;42.690;23.260;2022-12-07T08:12:57;52.47;;;30.73;;
6432;SDS011;3249;42.690;23.260;2022-12-07T08:15:43;52.07;;;29.57;;
6432;SDS011;3249;42.690;23.260;2022-12-07T08:18:10;62.10;;;30.10;;
6432;SDS011;3249;42.690;23.260;2022-12-07T08:20:37;52.90;;;31.33;;
6432;SDS011;3249;42.690;23.260;2022-12-07T08:23:03;54.47;;;32.07;;
6432;SDS011;3249;42.690;23.260;2022-12-07T08:25:29;51.90;;;31.03;;
6432;SDS011;3249;42.690;23.260;2022-12-07T08:27:55;53.90;;;31.00;;
6432;SDS011;3249;42.690;23.260;2022-12-07T08:30:23;51.40;;;31.70;;
6432;SDS011;3249;42.690;23.260;2022-12-07T08:32:49;49.90;;;31.73;;
6432;SDS011;3249;42.690;23.260;2022-12-07T08:35:15;59.00;;;32.77;;
6432;SDS011;3249;42.690;23.260;2022-12-07T08:37:41;65.10;;;33.67;;
6432;SDS011;3249;42.690;23.260;2022-12-07T08:40:07;58.37;;;33.10;;
6432;SDS011;3249;42.690;23.260;2022-12-07T08:42:34;63.50;;;33.27;;
6432;SDS011;3249;42.690;23.260;2022-12-07T08:47:32;57.47;;;33.07;;
6432;SDS011;3249;42.690;23.260;2022-12-07T08:50:03;59.23;;;31.70;;
6432;SDS011;3249;42.690;23.260;2022-12-07T08:52:31;53.67;;;35.83;;
6432;SDS011;3249;42.690;23.260;2022-12-07T08:54:58;57.37;;;31.40;;
6432;SDS011;3249;42.690;23.260;2022-12-07T08:57:25;60.40;;;34.13;;
6432;SDS011;3249;42.690;23.260;2022-12-07T08:59:55;51.13;;;33.47;;
6432;SDS011;3249;42.690;23.260;2022-12-07T09:02:20;57.17;;;34.77;;
6432;SDS011;3249;42.690;23.260;2022-12-07T09:04:46;64.40;;;34.87;;
6432;SDS011;3249;42.690;23.260;2022-12-07T09:07:11;59.87;;;36.77;;
6432;SDS011;3249;42.690;23.260;2022-12-07T09:09:38;58.20;;;37.60;;
6432;SDS011;3249;42.690;23.260;2022-12-07T09:12:03;55.73;;;34.60;;
6432;SDS011;3249;42.690;23.260;2022-12-07T09:14:29;70.83;;;38.90;;
6432;SDS011;3249;42.690;23.260;2022-12-07T09:16:54;64.33;;;37.37;;
6432;SDS011;3249;42.690;23.260;2022-12-07T09:19:20;57.97;;;36.83;;
6432;SDS011;3249;42.690;23.260;2022-12-07T09:21:45;58.60;;;37.40;;
6432;SDS011;3249;42.690;23.260;2022-12-07T09:24:14;62.13;;;37.17;;
6432;SDS011;3249;42.690;23.260;2022-12-07T09:26:39;57.50;;;37.63;;
6432;SDS011;3249;42.690;23.260;2022-12-07T09:29:05;60.57;;;37.27;;
6432;SDS011;3249;42.690;23.260;2022-12-07T09:31:31;62.80;;;38.97;;
6432;SDS011;3249;42.690;23.260;2022-12-07T09:33:57;61.47;;;37.20;;
6432;SDS011;3249;42.690;23.260;2022-12-07T09:36:25;71.63;;;39.53;;
6432;SDS011;3249;42.690;23.260;2022-12-07T09:38:51;67.10;;;39.37;;
6432;SDS011;3249;42.690;23.260;2022-12-07T09:41:17;65.23;;;40.20;;
6432;SDS011;3249;42.690;23.260;2022-12-07T09:43:43;68.93;;;38.23;;
6432;SDS011;3249;42.690;23.260;2022-12-07T09:46:15;59.33;;;36.77;;
6432;SDS011;3249;42.690;23.260;2022-12-07T09:48:43;57.47;;;36.53;;
6432;SDS011;3249;42.690;23.260;2022-12-07T09:53:45;70.00;;;37.23;;
6432;SDS011;3249;42.690;23.260;2022-12-07T09:56:13;59.80;;;36.63;;
6432;SDS011;3249;42.690;23.260;2022-12-07T09:58:39;60.00;;;35.60;;
6432;SDS011;3249;42.690;23.260;2022-12-07T10:03:35;60.13;;;35.00;;
6432;SDS011;3249;42.690;23.260;2022-12-07T10:06:03;61.10;;;35.43;;
6432;SDS011;3249;42.690;23.260;2022-12-07T10:08:30;54.70;;;35.37;;
6432;SDS011;3249;42.690;23.260;2022-12-07T10:10:56;54.20;;;35.00;;
6432;SDS011;3249;42.690;23.260;2022-12-07T10:13:33;54.77;;;32.53;;
6432;SDS011;3249;42.690;23.260;2022-12-07T10:16:01;54.60;;;33.63;;
6432;SDS011;3249;42.690;23.260;2022-12-07T10:18:31;64.00;;;33.00;;
6432;SDS011;3249;42.690;23.260;2022-12-07T10:23:34;43.33;;;28.30;;
6432;SDS011;3249;42.690;23.260;2022-12-07T10:28:45;39.27;;;25.87;;
6432;SDS011;3249;42.690;23.260;2022-12-07T10:31:18;40.83;;;25.43;;
6432;SDS011;3249;42.690;23.260;2022-12-07T10:33:50;40.30;;;27.53;;
6432;SDS011;3249;42.690;23.260;2022-12-07T10:36:18;45.17;;;27.13;;
6432;SDS011;3249;42.690;23.260;2022-12-07T10:38:47;43.97;;;26.27;;
6432;SDS011;3249;42.690;23.260;2022-12-07T10:41:15;40.07;;;27.13;;
6432;SDS011;3249;42.690;23.260;2022-12-07T10:44:19;40.73;;;25.33;;
6432;SDS011;3249;42.690;23.260;2022-12-07T10:47:31;39.07;;;25.93;;
6432;SDS011;3249;42.690;23.260;2022-12-07T10:50:02;47.27;;;27.73;;
6432;SDS011;3249;42.690;23.260;2022-12-07T10:52:39;49.27;;;27.47;;
6432;SDS011;3249;42.690;23.260;2022-12-07T10:55:29;42.40;;;27.50;;
6432;SDS011;3249;42.690;23.260;2022-12-07T10:58:17;51.90;;;28.17;;
6432;SDS011;3249;42.690;23.260;2022-12-07T11:00:57;44.37;;;26.83;;
6432;SDS011;3249;42.690;23.260;2022-12-07T11:03:53;42.43;;;25.20;;
6432;SDS011;3249;42.690;23.260;2022-12-07T11:12:14;46.33;;;26.07;;
6432;SDS011;3249;42.690;23.260;2022-12-07T11:20:34;47.00;;;26.53;;
6432;SDS011;3249;42.690;23.260;2022-12-07T11:25:46;46.13;;;27.90;;
6432;SDS011;3249;42.690;23.260;2022-12-07T11:31:24;47.33;;;26.57;;
6432;SDS011;3249;42.690;23.260;2022-12-07T11:34:10;34.30;;;23.00;;
6432;SDS011;3249;42.690;23.260;2022-12-07T11:36:54;39.50;;;21.97;;
6432;SDS011;3249;42.690;23.260;2022-12-07T11:39:26;45.30;;;23.93;;
6432;SDS011;3249;42.690;23.260;2022-12-07T11:42:14;40.13;;;22.70;;
6432;SDS011;3249;42.690;23.260;2022-12-07T11:53:01;42.73;;;23.13;;
6432;SDS011;3249;42.690;23.260;2022-12-07T11:58:51;46.27;;;22.87;;
6432;SDS011;3249;42.690;23.260;2022-12-07T12:00:54;41.00;;;22.33;;
6432;SDS011;3249;42.690;23.260;2022-12-07T12:03:30;38.57;;;21.03;;
6432;SDS011;3249;42.690;23.260;2022-12-07T12:05:59;36.53;;;21.80;;
6432;SDS011;3249;42.690;23.260;2022-12-07T12:08:29;33.73;;;20.73;;
6432;SDS011;3249;42.690;23.260;2022-12-07T12:11:08;30.27;;;19.80;;
6432;SDS011;3249;42.690;23.260;2022-12-07T12:22:19;32.27;;;21.23;;
6432;SDS011;3249;42.690;23.260;2022-12-07T12:24:49;31.50;;;20.20;;
6432;SDS011;3249;42.690;23.260;2022-12-07T12:29:57;38.03;;;21.13;;
6432;SDS011;3249;42.690;23.260;2022-12-07T12:32:39;32.47;;;19.30;;
6432;SDS011;3249;42.690;23.260;2022-12-07T12:37:51;30.60;;;19.57;;
6432;SDS011;3249;42.690;23.260;2022-12-07T12:42:53;35.87;;;23.70;;
6432;SDS011;3249;42.690;23.260;2022-12-07T12:45:30;29.93;;;20.50;;
6432;SDS011;3249;42.690;23.260;2022-12-07T12:50:41;41.67;;;24.30;;
6432;SDS011;3249;42.690;23.260;2022-12-07T12:53:16;29.30;;;21.30;;
6432;SDS011;3249;42.690;23.260;2022-12-07T12:58:32;45.23;;;31.73;;
6432;SDS011;3249;42.690;23.260;2022-12-07T13:03:56;45.60;;;30.60;;
6432;SDS011;3249;42.690;23.260;2022-12-07T13:08:55;35.53;;;19.27;;
6432;SDS011;3249;42.690;23.260;2022-12-07T13:11:38;31.17;;;19.90;;
6432;SDS011;3249;42.690;23.260;2022-12-07T13:17:04;37.27;;;21.13;;
6432;SDS011;3249;42.690;23.260;2022-12-07T13:25:08;30.07;;;19.73;;
6432;SDS011;3249;42.690;23.260;2022-12-07T13:27:59;26.67;;;15.43;;
6432;SDS011;3249;42.690;23.260;2022-12-07T13:30:28;24.13;;;15.93;;
6432;SDS011;3249;42.690;23.260;2022-12-07T13:32:55;30.17;;;16.93;;
6432;SDS011;3249;42.690;23.260;2022-12-07T13:35:36;27.10;;;17.07;;
6432;SDS011;3249;42.690;23.260;2022-12-07T13:38:13;30.77;;;17.67;;
6432;SDS011;3249;42.690;23.260;2022-12-07T13:40:58;33.00;;;17.30;;
6432;SDS011;3249;42.690;23.260;2022-12-07T13:43:25;27.33;;;17.87;;
6432;SDS011;3249;42.690;23.260;2022-12-07T13:45:55;27.60;;;19.20;;
6432;SDS011;3249;42.690;23.260;2022-12-07T13:48:32;34.13;;;18.93;;
6432;SDS011;3249;42.690;23.260;2022-12-07T13:50:58;27.90;;;18.10;;
6432;SDS011;3249;42.690;23.260;2022-12-07T13:53:26;25.90;;;17.13;;
6432;SDS011;3249;42.690;23.260;2022-12-07T13:55:58;36.07;;;19.17;;
6432;SDS011;3249;42.690;23.260;2022-12-07T13:58:25;61.47;;;32.23;;
6432;SDS011;3249;42.690;23.260;2022-12-07T14:00:54;28.97;;;18.33;;
6432;SDS011;3249;42.690;23.260;2022-12-07T14:03:23;29.83;;;17.30;;
6432;SDS011;3249;42.690;23.260;2022-12-07T14:06:06;31.37;;;17.73;;
6432;SDS011;3249;42.690;23.260;2022-12-07T14:08:39;32.10;;;20.63;;
6432;SDS011;3249;42.690;23.260;2022-12-07T14:11:12;34.43;;;27.10;;
6432;SDS011;3249;42.690;23.260;2022-12-07T14:13:45;39.03;;;25.93;;
6432;SDS011;3249;42.690;23.260;2022-12-07T14:19:02;32.00;;;18.50;;
6432;SDS011;3249;42.690;23.260;2022-12-07T14:21:30;31.63;;;18.47;;
6432;SDS011;3249;42.690;23.260;2022-12-07T14:26:35;30.23;;;15.77;;
6432;SDS011;3249;42.690;23.260;2022-12-07T14:31:46;25.73;;;16.70;;
6432;SDS011;3249;42.690;23.260;2022-12-07T14:34:11;31.87;;;16.50;;
6432;SDS011;3249;42.690;23.260;2022-12-07T14:36:37;26.27;;;14.13;;
6432;SDS011;3249;42.690;23.260;2022-12-07T14:39:03;22.60;;;15.73;;
6432;SDS011;3249;42.690;23.260;2022-12-07T14:41:28;27.20;;;15.07;;
6432;SDS011;3249;42.690;23.260;2022-12-07T14:44:12;46.53;;;21.23;;
6432;SDS011;3249;42.690;23.260;2022-12-07T14:46:38;52.97;;;19.43;;
6432;SDS011;3249;42.690;23.260;2022-12-07T14:49:03;34.80;;;16.53;;
6432;SDS011;3249;42.690;23.260;2022-12-07T14:51:28;37.40;;;16.80;;
6432;SDS011;3249;42.690;23.260;2022-12-07T14:53:54;33.90;;;15.73;;
6432;SDS011;3249;42.690;23.260;2022-12-07T14:56:20;49.57;;;27.73;;
6432;SDS011;3249;42.690;23.260;2022-12-07T14:58:45;51.87;;;24.60;;
6432;SDS011;3249;42.690;23.260;2022-12-07T15:01:13;41.57;;;25.17;;
6432;SDS011;3249;42.690;23.260;2022-12-07T15:03:38;36.97;;;22.70;;
6432;SDS011;3249;42.690;23.260;2022-12-07T15:06:04;45.80;;;22.23;;
6432;SDS011;3249;42.690;23.260;2022-12-07T15:08:30;69.73;;;36.03;;
6432;SDS011;3249;42.690;23.260;2022-12-07T15:10:56;69.37;;;34.90;;
6432;SDS011;3249;42.690;23.260;2022-12-07T15:13:21;88.37;;;48.60;;
6432;SDS011;3249;42.690;23.260;2022-12-07T15:16:07;79.60;;;45.17;;
6432;SDS011;3249;42.690;23.260;2022-12-07T15:18:35;54.43;;;28.23;;
6432;SDS011;3249;42.690;23.260;2022-12-07T15:21:01;100.47;;;50.37;;
6432;SDS011;3249;42.690;23.260;2022-12-07T15:23:26;112.20;;;58.90;;
6432;SDS011;3249;42.690;23.260;2022-12-07T15:25:51;202.23;;;120.83;;
6432;SDS011;3249;42.690;23.260;2022-12-07T15:28:17;106.93;;;60.37;;
6432;SDS011;3249;42.690;23.260;2022-12-07T15:30:43;76.97;;;39.60;;
6432;SDS011;3249;42.690;23.260;2022-12-07T15:33:09;73.63;;;43.23;;
6432;SDS011;3249;42.690;23.260;2022-12-07T15:35:42;125.20;;;70.20;;
6432;SDS011;3249;42.690;23.260;2022-12-07T15:38:09;139.97;;;71.67;;
6432;SDS011;3249;42.690;23.260;2022-12-07T15:40:34;112.13;;;54.87;;
6432;SDS011;3249;42.690;23.260;2022-12-07T15:43:01;142.17;;;76.00;;
6432;SDS011;3249;42.690;23.260;2022-12-07T15:45:27;157.77;;;79.40;;
6432;SDS011;3249;42.690;23.260;2022-12-07T15:47:52;87.83;;;44.20;;
6432;SDS011;3249;42.690;23.260;2022-12-07T15:50:19;124.70;;;57.63;;
6432;SDS011;3249;42.690;23.260;2022-12-07T15:52:45;98.87;;;49.87;;
6432;SDS011;3249;42.690;23.260;2022-12-07T15:55:11;112.47;;;55.47;;
6432;SDS011;3249;42.690;23.260;2022-12-07T15:57:37;124.57;;;72.77;;
6432;SDS011;3249;42.690;23.260;2022-12-07T16:00:04;94.27;;;55.00;;
6432;SDS011;3249;42.690;23.260;2022-12-07T16:02:31;73.43;;;39.67;;
6432;SDS011;3249;42.690;23.260;2022-12-07T16:04:56;98.23;;;46.70;;
6432;SDS011;3249;42.690;23.260;2022-12-07T16:07:22;103.30;;;60.47;;
6432;SDS011;3249;42.690;23.260;2022-12-07T16:09:47;111.83;;;56.37;;
6432;SDS011;3249;42.690;23.260;2022-12-07T16:12:14;106.67;;;52.27;;
6432;SDS011;3249;42.690;23.260;2022-12-07T16:14:41;70.63;;;36.03;;
6432;SDS011;3249;42.690;23.260;2022-12-07T16:17:07;91.80;;;53.00;;
6432;SDS011;3249;42.690;23.260;2022-12-07T16:19:33;77.93;;;42.67;;
6432;SDS011;3249;42.690;23.260;2022-12-07T16:21:59;66.70;;;37.53;;
6432;SDS011;3249;42.690;23.260;2022-12-07T16:24:25;69.77;;;37.73;;
6432;SDS011;3249;42.690;23.260;2022-12-07T16:26:51;49.30;;;27.87;;
6432;SDS011;3249;42.690;23.260;2022-12-07T16:29:18;117.50;;;77.00;;
6432;SDS011;3249;42.690;23.260;2022-12-07T16:31:45;105.47;;;66.17;;
6432;SDS011;3249;42.690;23.260;2022-12-07T16:34:11;62.90;;;41.87;;
6432;SDS011;3249;42.690;23.260;2022-12-07T16:36:37;120.30;;;75.13;;
6432;SDS011;3249;42.690;23.260;2022-12-07T16:39:02;84.00;;;44.40;;
6432;SDS011;3249;42.690;23.260;2022-12-07T16:41:29;66.73;;;35.87;;
6432;SDS011;3249;42.690;23.260;2022-12-07T16:43:54;81.13;;;43.83;;
6432;SDS011;3249;42.690;23.260;2022-12-07T16:46:20;138.20;;;74.40;;
6432;SDS011;3249;42.690;23.260;2022-12-07T16:48:45;138.93;;;73.03;;
6432;SDS011;3249;42.690;23.260;2022-12-07T16:51:12;136.50;;;76.27;;